Time;durP1;ratioP1;P1;durP2;ratioP2;P2;SDS_P1;SDS_P2;PMS_P1;PMS_P2;Temp;Humidity;BMP_temperature;BMP_pressure;BME280_temperature;BME280_humidity;BME280_pressure;Samples;Min_cycle;Max_cycle;Signal;HPM_P1;HPM_P2
2024/01/04 00:00:25;;;;;;;10.80;10.40;;;9.20;99.90;;;;;;5050745;28;20407;-55
2024/01/04 00:02:51;;;;;;;10.50;10.10;;;9.20;99.90;;;;;;5058397;28;21018;-54
2024/01/04 00:05:17;;;;;;;10.50;10.10;;;9.30;99.90;;;;;;5043464;28;20423;-53
2024/01/04 00:07:42;;;;;;;10.33;9.93;;;9.40;1.00;;;;;;5054578;28;20455;-53
2024/01/04 00:10:08;;;;;;;10.40;9.90;;;9.40;99.90;;;;;;5054666;28;20758;-53
2024/01/04 00:12:34;;;;;;;10.63;9.90;;;9.40;1.00;;;;;;5061957;28;20254;-56
2024/01/04 00:15:03;;;;;;;10.20;9.80;;;9.40;99.90;;;;;;5047115;28;20428;-53
2024/01/04 00:17:31;;;;;;;9.90;9.50;;;9.50;1.00;;;;;;5055509;28;20934;-51
2024/01/04 00:19:57;;;;;;;10.30;9.80;;;9.60;1.00;;;;;;5058232;28;20477;-56
2024/01/04 00:22:22;;;;;;;10.10;9.60;;;9.60;99.90;;;;;;5056190;28;20471;-54
2024/01/04 00:24:49;;;;;;;10.30;9.90;;;9.60;99.90;;;;;;5060671;28;20662;-54
2024/01/04 00:27:15;;;;;;;10.20;9.80;;;9.70;1.00;;;;;;5054346;28;21215;-52
2024/01/04 00:29:42;;;;;;;10.20;9.80;;;9.70;1.00;;;;;;5054422;28;20466;-54
2024/01/04 00:32:09;;;;;;;10.00;9.60;;;9.80;99.90;;;;;;5049555;28;20435;-52
2024/01/04 00:34:34;;;;;;;9.93;9.53;;;9.80;99.90;;;;;;5054457;28;20463;-52
2024/01/04 00:37:00;;;;;;;10.10;9.70;;;9.80;99.90;;;;;;5049430;28;20416;-54
2024/01/04 00:39:25;;;;;;;10.10;9.70;;;9.90;99.90;;;;;;5045135;28;20198;-54
2024/01/04 00:41:53;;;;;;;10.57;10.17;;;9.80;99.90;;;;;;5053653;28;20235;-37
2024/01/04 00:44:18;;;;;;;10.13;9.73;;;9.80;99.90;;;;;;5051231;28;20205;-36
2024/01/04 00:46:44;;;;;;;10.00;9.60;;;9.80;83.00;;;;;;5046128;28;20447;-37
2024/01/04 00:49:10;;;;;;;9.83;9.43;;;9.80;58.50;;;;;;5055030;28;20586;-37
2024/01/04 00:51:35;;;;;;;9.80;9.40;;;9.90;1.00;;;;;;5048614;28;20221;-37
2024/01/04 00:54:02;;;;;;;9.80;9.40;;;9.90;1.00;;;;;;5056556;28;20200;-38
2024/01/04 00:56:36;;;;;;;9.60;9.30;;;9.90;1.00;;;;;;5053025;28;20191;-37
2024/01/04 00:59:01;;;;;;;9.60;9.20;;;9.90;1.00;;;;;;5056253;28;20426;-36
2024/01/04 01:01:27;;;;;;;9.30;9.00;;;9.90;1.00;;;;;;5046066;28;20460;-37
2024/01/04 01:03:53;;;;;;;9.97;9.57;;;9.90;1.00;;;;;;5053837;28;20416;-54
2024/01/04 01:06:19;;;;;;;9.37;9.07;;;9.90;1.00;;;;;;5052539;28;21237;-52
2024/01/04 01:08:44;;;;;;;9.60;9.20;;;9.90;1.00;;;;;;5059777;28;20506;-47
2024/01/04 01:11:10;;;;;;;9.93;9.47;;;10.00;1.00;;;;;;5046950;28;20178;-55
2024/01/04 01:13:36;;;;;;;9.63;9.23;;;9.90;1.00;;;;;;5050922;28;20640;-55
2024/01/04 01:16:01;;;;;;;9.93;9.53;;;9.90;1.00;;;;;;5051365;28;20323;-37
2024/01/04 01:18:28;;;;;;;10.00;9.60;;;9.90;1.00;;;;;;5052761;28;20264;-37
2024/01/04 01:20:54;;;;;;;9.40;9.10;;;9.90;1.00;;;;;;5050250;28;20174;-38
2024/01/04 01:23:20;;;;;;;9.40;9.00;;;9.90;1.00;;;;;;5058978;28;20433;-36
2024/01/04 01:25:45;;;;;;;9.90;9.50;;;10.00;1.00;;;;;;5053568;28;20806;-37
2024/01/04 01:28:11;;;;;;;9.67;9.27;;;10.00;1.00;;;;;;5056719;28;20178;-56
2024/01/04 01:30:37;;;;;;;9.73;9.30;;;10.00;1.00;;;;;;5046502;28;20264;-48
2024/01/04 01:33:03;;;;;;;10.30;9.60;;;10.00;1.00;;;;;;5047564;28;20182;-50
2024/01/04 01:35:28;;;;;;;9.90;9.50;;;10.00;1.00;;;;;;5057201;28;20192;-53
2024/01/04 01:37:54;;;;;;;9.97;9.50;;;10.10;1.00;;;;;;5048830;28;20185;-56
2024/01/04 01:40:21;;;;;;;9.80;9.40;;;10.10;1.00;;;;;;5053774;28;20257;-53
2024/01/04 01:42:47;;;;;;;10.10;9.63;;;10.00;1.00;;;;;;5055633;28;20213;-56
2024/01/04 01:45:13;;;;;;;9.80;9.40;;;10.00;1.00;;;;;;5048257;28;20415;-52
2024/01/04 01:47:40;;;;;;;10.10;9.70;;;10.00;1.00;;;;;;5053458;28;20489;-52
2024/01/04 01:50:07;;;;;;;10.00;9.60;;;10.10;1.00;;;;;;5049927;28;20182;-50
2024/01/04 01:52:34;;;;;;;9.83;9.43;;;10.00;1.00;;;;;;5062005;28;20427;-55
2024/01/04 01:55:00;;;;;;;10.00;9.60;;;10.10;1.00;;;;;;5059451;28;20455;-53
2024/01/04 01:57:27;;;;;;;9.87;9.50;;;10.00;1.00;;;;;;5045620;28;20633;-56
2024/01/04 01:59:53;;;;;;;9.70;9.30;;;10.00;1.00;;;;;;5045758;28;20416;-56
2024/01/04 02:02:19;;;;;;;10.10;9.70;;;10.10;1.00;;;;;;5056764;28;20473;-38
2024/01/04 02:04:45;;;;;;;9.73;9.37;;;10.00;1.00;;;;;;5048505;28;20549;-37
2024/01/04 02:07:10;;;;;;;9.50;9.20;;;10.00;1.00;;;;;;5049961;28;20635;-36
2024/01/04 02:09:36;;;;;;;9.90;9.50;;;10.00;1.00;;;;;;5061613;28;20427;-36
2024/01/04 02:12:06;;;;;;;10.07;9.70;;;10.00;31.10;;;;;;5050977;28;20585;-37
2024/01/04 02:14:32;;;;;;;9.73;9.40;;;10.10;3.50;;;;;;5057880;28;20640;-37
2024/01/04 02:16:58;;;;;;;10.00;9.60;;;10.10;29.50;;;;;;5045031;28;21242;-39
2024/01/04 02:19:26;;;;;;;9.33;8.93;;;10.10;95.80;;;;;;5048859;28;20478;-38
2024/01/04 02:21:51;;;;;;;9.93;9.53;;;10.10;99.90;;;;;;5047893;28;20687;-37
2024/01/04 02:24:17;;;;;;;9.70;9.40;;;10.00;99.90;;;;;;5049994;28;20427;-37
2024/01/04 02:26:42;;;;;;;9.33;9.03;;;10.10;99.90;;;;;;5049940;28;20264;-37
2024/01/04 02:29:08;;;;;;;9.80;9.40;;;10.00;99.90;;;;;;5049837;28;20174;-37
2024/01/04 02:31:34;;;;;;;9.90;9.50;;;10.10;99.90;;;;;;5049174;28;20189;-37
2024/01/04 02:33:59;;;;;;;9.80;9.40;;;10.10;99.90;;;;;;5049191;28;20562;-37
2024/01/04 02:36:25;;;;;;;9.93;9.53;;;10.00;99.90;;;;;;5050000;28;20199;-37
2024/01/04 02:38:51;;;;;;;10.00;9.50;;;10.00;99.90;;;;;;5047288;28;20189;-42
2024/01/04 02:41:17;;;;;;;10.00;9.60;;;10.00;99.90;;;;;;5043250;28;20464;-37
2024/01/04 02:43:42;;;;;;;10.37;9.87;;;10.00;99.90;;;;;;5043606;28;20212;-37
2024/01/04 02:46:08;;;;;;;10.40;9.90;;;10.00;99.90;;;;;;5051557;28;20659;-37
2024/01/04 02:48:33;;;;;;;10.00;9.60;;;10.00;99.90;;;;;;5052326;28;20181;-54
2024/01/04 02:50:59;;;;;;;10.03;9.63;;;10.00;99.90;;;;;;5042999;28;20674;-47
2024/01/04 02:53:25;;;;;;;9.53;9.13;;;9.90;99.90;;;;;;5050979;28;20177;-36
2024/01/04 02:55:50;;;;;;;9.50;9.20;;;10.00;99.90;;;;;;5056849;28;20264;-36
2024/01/04 02:58:16;;;;;;;9.80;9.30;;;10.00;99.90;;;;;;5054483;28;20173;-36
2024/01/04 03:00:41;;;;;;;9.17;8.87;;;9.90;99.90;;;;;;5055750;28;20292;-37
2024/01/04 03:03:07;;;;;;;9.40;9.10;;;10.00;99.90;;;;;;5051120;28;20666;-35
2024/01/04 03:05:32;;;;;;;9.60;9.30;;;9.90;99.90;;;;;;5047738;28;20225;-46
2024/01/04 03:07:58;;;;;;;9.90;9.50;;;9.90;99.90;;;;;;5056685;28;21011;-46
2024/01/04 03:10:24;;;;;;;9.90;9.50;;;10.00;99.90;;;;;;5041556;28;20190;-46
2024/01/04 03:12:50;;;;;;;10.03;9.63;;;10.00;99.90;;;;;;5043841;28;20433;-45
2024/01/04 03:15:15;;;;;;;9.70;9.30;;;10.00;99.90;;;;;;5060272;28;20177;-46
2024/01/04 03:17:41;;;;;;;9.23;8.83;;;10.00;99.90;;;;;;5056603;28;20520;-46
2024/01/04 03:20:07;;;;;;;9.30;9.00;;;10.10;99.90;;;;;;5047484;28;20865;-47
2024/01/04 03:22:33;;;;;;;9.43;9.03;;;10.10;99.90;;;;;;5048417;28;20271;-46
2024/01/04 03:24:58;;;;;;;9.80;9.40;;;10.10;99.90;;;;;;5048896;28;20424;-46
2024/01/04 03:27:24;;;;;;;9.60;9.30;;;10.00;99.90;;;;;;5041147;28;20178;-46
2024/01/04 03:29:50;;;;;;;9.60;9.20;;;10.00;99.90;;;;;;5041866;28;20217;-46
2024/01/04 03:32:16;;;;;;;9.50;9.20;;;10.10;99.90;;;;;;5042216;28;20214;-48
2024/01/04 03:34:42;;;;;;;9.30;9.00;;;10.10;99.90;;;;;;5048213;28;20435;-46
2024/01/04 03:37:07;;;;;;;9.50;9.10;;;10.10;99.90;;;;;;5045271;28;20954;-45
2024/01/04 03:39:33;;;;;;;10.10;9.70;;;9.90;99.90;;;;;;5054016;28;20196;-46
2024/01/04 03:41:58;;;;;;;9.67;9.20;;;9.80;99.90;;;;;;5049359;28;20279;-46
2024/01/04 03:44:24;;;;;;;9.50;9.20;;;9.90;99.90;;;;;;5055442;28;20182;-46
2024/01/04 03:46:50;;;;;;;8.83;8.53;;;9.90;99.90;;;;;;5052245;28;20189;-47
2024/01/04 03:49:15;;;;;;;9.03;8.60;;;10.00;99.90;;;;;;5054400;28;20226;-47
2024/01/04 03:51:41;;;;;;;8.80;8.50;;;10.00;99.90;;;;;;5045182;28;20200;-46
2024/01/04 03:54:06;;;;;;;8.63;8.33;;;10.00;99.90;;;;;;5051273;28;21581;-46
2024/01/04 03:56:32;;;;;;;8.70;8.40;;;9.90;99.90;;;;;;5050437;28;20189;-46
2024/01/04 03:58:57;;;;;;;9.00;8.70;;;9.90;99.90;;;;;;5053630;28;20178;-47
2024/01/04 04:01:23;;;;;;;8.57;8.27;;;9.80;99.90;;;;;;5056695;28;20263;-46
2024/01/04 04:03:49;;;;;;;8.97;8.67;;;9.80;99.90;;;;;;5055283;28;20259;-46
2024/01/04 04:06:19;;;;;;;9.50;9.20;;;9.90;99.90;;;;;;5045516;28;21172;-47
2024/01/04 04:08:45;;;;;;;9.03;8.73;;;9.90;99.90;;;;;;5046015;28;20228;-47
2024/01/04 04:11:17;;;;;;;9.60;9.20;;;9.90;99.90;;;;;;5059402;28;20409;-48
2024/01/04 04:13:43;;;;;;;9.10;8.70;;;9.90;99.90;;;;;;5047539;28;20177;-47
2024/01/04 04:16:09;;;;;;;9.50;9.20;;;9.90;99.90;;;;;;5057834;28;20515;-47
2024/01/04 04:18:34;;;;;;;9.70;9.40;;;9.90;99.90;;;;;;5044633;28;20472;-47
2024/01/04 04:21:00;;;;;;;9.03;8.73;;;9.90;99.90;;;;;;5053722;28;20191;-47
2024/01/04 04:23:26;;;;;;;9.40;9.10;;;10.00;99.90;;;;;;5042170;28;20660;-47
2024/01/04 04:25:52;;;;;;;8.83;8.53;;;10.00;99.90;;;;;;5057050;28;20185;-46
2024/01/04 04:28:17;;;;;;;9.70;9.30;;;10.10;99.90;;;;;;5050958;28;20423;-46
2024/01/04 04:30:43;;;;;;;9.40;9.10;;;10.10;99.90;;;;;;5055124;28;20227;-54
2024/01/04 04:33:09;;;;;;;8.80;8.50;;;10.00;99.90;;;;;;5043292;28;20717;-54
2024/01/04 04:35:34;;;;;;;8.63;8.23;;;10.00;99.90;;;;;;5051765;28;20189;-51
2024/01/04 04:38:00;;;;;;;10.20;9.80;;;9.90;99.90;;;;;;5047016;28;20208;-54
2024/01/04 04:40:25;;;;;;;10.70;10.30;;;9.70;1.00;;;;;;5058302;28;20189;-54
2024/01/04 04:42:51;;;;;;;11.13;10.73;;;9.60;99.90;;;;;;5050090;28;20279;-54
2024/01/04 04:45:16;;;;;;;11.50;11.00;;;9.40;99.90;;;;;;5054205;28;20185;-54
2024/01/04 04:47:42;;;;;;;12.00;11.50;;;9.30;99.90;;;;;;5051956;28;20239;-53
2024/01/04 04:50:08;;;;;;;12.20;11.70;;;9.10;1.00;;;;;;5045569;28;20182;-55
2024/01/04 04:52:34;;;;;;;13.10;12.60;;;9.00;70.80;;;;;;5054276;28;20224;-52
2024/01/04 04:55:00;;;;;;;13.50;13.00;;;9.00;99.90;;;;;;5046153;28;20187;-55
2024/01/04 04:57:25;;;;;;;12.23;11.83;;;8.90;99.90;;;;;;5053437;28;20225;-55
2024/01/04 04:59:51;;;;;;;12.40;11.90;;;8.80;1.00;;;;;;5053524;28;20416;-54
2024/01/04 05:02:16;;;;;;;12.63;12.13;;;8.70;1.00;;;;;;5045093;28;20809;-55
2024/01/04 05:04:43;;;;;;;12.70;12.20;;;8.70;1.00;;;;;;5053576;28;20181;-53
2024/01/04 05:07:09;;;;;;;12.40;11.90;;;8.70;1.00;;;;;;5047650;28;20316;-54
2024/01/04 05:09:34;;;;;;;12.63;12.13;;;8.70;1.00;;;;;;5055992;28;20415;-53
2024/01/04 05:12:00;;;;;;;12.00;11.50;;;8.80;1.00;;;;;;5050309;28;20463;-54
2024/01/04 05:14:26;;;;;;;11.87;11.37;;;8.80;1.00;;;;;;5054660;28;20197;-55
2024/01/04 05:16:51;;;;;;;11.50;11.10;;;8.80;1.00;;;;;;5053667;28;20193;-55
2024/01/04 05:19:17;;;;;;;12.10;11.60;;;8.80;1.00;;;;;;5047262;28;20225;-53
2024/01/04 05:21:42;;;;;;;12.00;11.50;;;8.90;1.00;;;;;;5053232;28;20641;-50
2024/01/04 05:24:08;;;;;;;11.07;10.67;;;9.00;1.00;;;;;;5049654;28;20263;-55
2024/01/04 05:26:33;;;;;;;11.90;11.40;;;9.00;1.00;;;;;;5059365;28;20203;-54
2024/01/04 05:28:59;;;;;;;12.40;11.83;;;9.00;1.00;;;;;;5050296;28;20197;-52
2024/01/04 05:31:25;;;;;;;11.93;11.43;;;9.00;1.00;;;;;;5046091;28;20181;-54
2024/01/04 05:33:51;;;;;;;12.50;12.00;;;9.00;1.00;;;;;;5055135;28;20805;-52
2024/01/04 05:36:17;;;;;;;12.50;11.90;;;9.00;1.00;;;;;;5056533;28;20415;-51
2024/01/04 05:38:42;;;;;;;12.20;11.70;;;8.80;1.00;;;;;;5050343;28;20185;-51
2024/01/04 05:41:08;;;;;;;11.20;10.80;;;8.80;1.00;;;;;;5049755;28;20224;-54
2024/01/04 05:43:34;;;;;;;11.27;10.77;;;8.70;1.00;;;;;;5058727;28;20200;-51
2024/01/04 05:46:06;;;;;;;12.17;11.67;;;8.60;23.20;;;;;;5060553;28;20667;-52
2024/01/04 05:48:32;;;;;;;11.63;11.23;;;8.50;28.70;;;;;;5061189;28;20889;-39
2024/01/04 05:50:57;;;;;;;11.40;10.90;;;8.50;53.50;;;;;;5045172;28;20435;-37
2024/01/04 05:53:23;;;;;;;12.20;11.70;;;8.40;57.10;;;;;;5053290;28;20529;-37
2024/01/04 05:55:49;;;;;;;12.73;12.20;;;8.40;73.70;;;;;;5044940;28;20674;-37
2024/01/04 05:58:15;;;;;;;11.60;11.20;;;8.30;92.60;;;;;;5041914;28;20590;-39
2024/01/04 06:00:40;;;;;;;11.37;10.97;;;8.30;95.60;;;;;;5048969;28;20193;-36
2024/01/04 06:03:06;;;;;;;11.17;10.67;;;8.40;92.20;;;;;;5055660;28;20278;-37
2024/01/04 06:05:31;;;;;;;10.47;10.07;;;8.30;99.90;;;;;;5053991;28;20189;-37
2024/01/04 06:07:57;;;;;;;11.53;11.07;;;8.30;99.90;;;;;;5055526;28;20287;-37
2024/01/04 06:10:23;;;;;;;10.90;10.50;;;8.30;99.90;;;;;;5047896;28;20385;-38
2024/01/04 06:12:48;;;;;;;12.37;11.83;;;8.30;99.90;;;;;;5059544;28;20181;-38
2024/01/04 06:15:14;;;;;;;11.40;10.80;;;8.30;99.90;;;;;;5050692;28;20591;-37
2024/01/04 06:17:39;;;;;;;11.47;10.97;;;8.30;99.90;;;;;;5059945;28;20265;-38
2024/01/04 06:20:05;;;;;;;12.43;11.93;;;8.30;99.90;;;;;;5051966;28;20233;-36
2024/01/04 06:22:31;;;;;;;12.50;12.00;;;8.30;99.90;;;;;;5059234;28;20220;-37
2024/01/04 06:24:56;;;;;;;12.67;12.17;;;8.20;99.90;;;;;;5054638;28;20181;-37
2024/01/04 06:27:22;;;;;;;12.17;11.67;;;8.10;99.90;;;;;;5043509;28;20203;-37
2024/01/04 06:29:47;;;;;;;12.20;11.70;;;8.10;99.90;;;;;;5048141;28;20644;-38
2024/01/04 06:32:13;;;;;;;12.70;12.20;;;8.10;99.90;;;;;;5048016;28;20292;-39
2024/01/04 06:34:39;;;;;;;12.50;12.00;;;8.10;99.90;;;;;;5045458;28;20185;-37
2024/01/04 06:37:04;;;;;;;12.47;11.97;;;8.10;99.90;;;;;;5051332;28;20190;-43
2024/01/04 06:39:30;;;;;;;12.30;11.80;;;8.10;99.90;;;;;;5057168;28;20195;-49
2024/01/04 06:41:56;;;;;;;12.53;12.03;;;8.10;99.90;;;;;;5050722;28;20369;-46
2024/01/04 06:44:22;;;;;;;12.50;12.00;;;8.10;99.90;;;;;;5059379;28;20189;-46
2024/01/04 06:46:48;;;;;;;11.07;10.67;;;8.10;99.90;;;;;;5052374;28;20423;-49
2024/01/04 06:49:14;;;;;;;11.97;11.47;;;8.10;99.90;;;;;;5059618;28;20303;-48
2024/01/04 06:51:39;;;;;;;11.60;11.20;;;8.10;99.90;;;;;;5050909;28;20415;-53
2024/01/04 06:54:05;;;;;;;12.63;12.13;;;8.10;99.90;;;;;;5060249;28;20193;-51
2024/01/04 06:56:31;;;;;;;12.50;12.00;;;8.10;99.90;;;;;;5053977;28;20578;-53
2024/01/04 06:58:56;;;;;;;12.00;11.50;;;8.10;99.90;;;;;;5057732;28;20595;-38
2024/01/04 07:01:22;;;;;;;11.77;11.27;;;8.10;99.90;;;;;;5049640;28;20524;-49
2024/01/04 07:03:49;;;;;;;11.07;10.67;;;8.10;99.90;;;;;;5059591;28;20310;-51
2024/01/04 07:06:15;;;;;;;11.30;10.90;;;8.00;99.90;;;;;;5057858;28;20188;-51
2024/01/04 07:08:40;;;;;;;12.07;11.57;;;8.10;99.90;;;;;;5059023;28;20415;-50
2024/01/04 07:11:06;;;;;;;12.33;11.83;;;8.10;99.90;;;;;;5049938;28;20420;-51
2024/01/04 07:13:35;;;;;;;11.80;11.30;;;8.10;99.90;;;;;;5053933;28;20189;-46
2024/01/04 07:16:04;;;;;;;12.20;11.70;;;8.10;99.90;;;;;;5050666;28;20521;-52
2024/01/04 07:18:30;;;;;;;11.77;11.30;;;8.10;99.90;;;;;;5042995;28;20443;-47
2024/01/04 07:20:55;;;;;;;12.30;11.80;;;8.10;99.90;;;;;;5042423;28;20424;-48
2024/01/04 07:23:21;;;;;;;10.37;9.97;;;8.00;99.90;;;;;;5042704;28;20629;-49
2024/01/04 07:25:47;;;;;;;11.40;10.90;;;8.00;99.90;;;;;;5054261;28;20722;-37
2024/01/04 07:28:12;;;;;;;11.57;11.17;;;8.10;99.90;;;;;;5054856;28;20185;-37
2024/01/04 07:30:38;;;;;;;12.50;12.00;;;8.10;99.90;;;;;;5055430;28;20583;-37
2024/01/04 07:33:04;;;;;;;12.37;11.87;;;8.10;99.90;;;;;;5044561;28;20273;-38
2024/01/04 07:35:30;;;;;;;11.53;11.03;;;8.10;99.90;;;;;;5057559;28;20181;-39
2024/01/04 07:37:57;;;;;;;11.90;11.40;;;8.10;99.90;;;;;;5042660;28;20929;-37
2024/01/04 07:40:22;;;;;;;11.67;11.17;;;8.10;99.90;;;;;;5050762;28;20716;-37
2024/01/04 07:42:48;;;;;;;11.73;11.23;;;8.10;99.90;;;;;;5051129;28;20766;-38
2024/01/04 07:45:13;;;;;;;12.17;11.67;;;8.10;99.90;;;;;;5039793;28;20190;-39
2024/01/04 07:47:39;;;;;;;12.10;11.60;;;8.00;99.90;;;;;;5042124;28;20231;-38
2024/01/04 07:50:06;;;;;;;12.00;11.50;;;8.10;99.90;;;;;;5055879;28;20585;-37
2024/01/04 07:52:32;;;;;;;11.73;11.23;;;8.00;99.90;;;;;;5048202;28;20419;-39
2024/01/04 07:54:58;;;;;;;12.13;11.63;;;8.10;99.90;;;;;;5050023;28;20898;-39
2024/01/04 07:57:23;;;;;;;12.10;11.60;;;8.10;99.90;;;;;;5056947;28;20427;-38
2024/01/04 07:59:49;;;;;;;11.93;11.43;;;8.10;99.90;;;;;;5059102;28;20674;-38
2024/01/04 08:02:16;;;;;;;11.97;11.47;;;8.10;99.90;;;;;;5051590;28;20248;-38
2024/01/04 08:04:41;;;;;;;11.73;11.23;;;8.20;99.90;;;;;;5055751;28;20180;-38
2024/01/04 08:07:07;;;;;;;11.53;11.03;;;8.20;99.90;;;;;;5053227;28;20446;-37
2024/01/04 08:09:33;;;;;;;11.57;11.07;;;8.20;99.90;;;;;;5053935;28;20178;-36
2024/01/04 08:11:58;;;;;;;11.63;11.10;;;8.30;99.90;;;;;;5051644;28;20184;-37
2024/01/04 08:14:24;;;;;;;11.17;10.77;;;8.20;99.90;;;;;;5042863;28;20198;-38
2024/01/04 08:16:49;;;;;;;10.83;10.33;;;8.30;99.90;;;;;;5054709;28;20191;-37
2024/01/04 08:19:15;;;;;;;11.80;11.30;;;8.40;99.90;;;;;;5072060;28;20617;-37
2024/01/04 08:21:41;;;;;;;11.77;11.27;;;8.50;99.90;;;;;;5053507;28;20210;-37
2024/01/04 08:24:06;;;;;;;10.83;10.30;;;8.40;99.90;;;;;;5050295;28;20334;-38
2024/01/04 08:26:32;;;;;;;11.63;11.13;;;8.40;99.90;;;;;;5056084;28;20264;-38
2024/01/04 08:28:57;;;;;;;11.40;10.90;;;8.50;99.90;;;;;;5053497;28;20195;-37
2024/01/04 08:31:23;;;;;;;11.07;10.47;;;8.60;99.90;;;;;;5046407;28;20189;-38
2024/01/04 08:33:49;;;;;;;10.07;9.67;;;8.70;98.20;;;;;;5045994;28;20711;-37
2024/01/04 08:36:14;;;;;;;10.60;10.10;;;8.80;66.80;;;;;;5054163;28;20208;-37
2024/01/04 08:38:40;;;;;;;9.70;9.30;;;8.80;44.60;;;;;;5052989;28;20189;-38
2024/01/04 08:41:05;;;;;;;10.30;9.90;;;8.90;27.90;;;;;;5061843;28;20569;-39
2024/01/04 08:43:31;;;;;;;9.80;9.30;;;9.10;19.30;;;;;;5055681;28;20224;-37
2024/01/04 08:45:57;;;;;;;10.70;10.27;;;9.10;6.40;;;;;;5061848;28;20177;-37
2024/01/04 08:48:22;;;;;;;9.90;9.50;;;9.10;1.20;;;;;;5047803;28;20557;-37
2024/01/04 08:50:48;;;;;;;10.30;9.90;;;9.20;5.30;;;;;;5054736;28;20220;-39
2024/01/04 08:53:20;;;;;;;10.83;10.40;;;9.20;1.00;;;;;;5051828;28;20673;-38
2024/01/04 08:55:45;;;;;;;10.23;9.83;;;9.30;1.00;;;;;;5055448;28;20405;-37
2024/01/04 08:58:11;;;;;;;10.40;10.00;;;9.40;1.00;;;;;;5043917;28;20485;-38
2024/01/04 09:00:37;;;;;;;10.20;9.80;;;9.50;1.00;;;;;;5059196;28;20529;-37
2024/01/04 09:03:03;;;;;;;9.33;8.90;;;9.50;1.00;;;;;;5051567;28;20934;-37
2024/01/04 09:05:30;;;;;;;10.70;10.30;;;9.70;1.00;;;;;;5059362;28;20193;-37
2024/01/04 09:07:55;;;;;;;10.67;10.13;;;9.70;1.00;;;;;;5053293;28;20946;-37
2024/01/04 09:10:21;;;;;;;10.77;10.27;;;9.80;1.00;;;;;;5054901;28;20432;-37
2024/01/04 09:12:47;;;;;;;10.67;10.27;;;9.80;1.00;;;;;;5046047;28;20235;-38
2024/01/04 09:15:13;;;;;;;10.87;10.37;;;9.80;1.00;;;;;;5061312;28;20811;-37
2024/01/04 09:17:42;;;;;;;9.70;9.30;;;9.70;1.00;;;;;;5056253;28;20711;-37
2024/01/04 09:20:08;;;;;;;10.50;10.00;;;9.60;1.00;;;;;;5059558;28;20878;-37
2024/01/04 09:22:34;;;;;;;9.70;9.30;;;9.60;1.00;;;;;;5057578;28;20474;-37
2024/01/04 09:24:59;;;;;;;9.87;9.47;;;9.70;99.90;;;;;;5054705;28;20420;-37
2024/01/04 09:27:25;;;;;;;10.67;10.27;;;9.70;99.90;;;;;;5050140;28;20193;-37
2024/01/04 09:29:52;;;;;;;10.90;10.40;;;9.90;1.00;;;;;;5051542;28;20191;-37
2024/01/04 09:32:18;;;;;;;10.60;10.20;;;10.20;99.90;;;;;;5050183;28;20613;-37
2024/01/04 09:34:43;;;;;;;10.50;10.10;;;10.40;1.00;;;;;;5051766;28;20423;-38
2024/01/04 09:37:09;;;;;;;10.20;9.70;;;10.50;99.90;;;;;;5061218;28;20297;-37
2024/01/04 09:39:35;;;;;;;10.90;10.40;;;10.70;99.90;;;;;;5048005;28;20188;-37
2024/01/04 09:42:03;;;;;;;10.07;9.67;;;10.70;1.00;;;;;;5048786;28;20222;-37
2024/01/04 09:44:32;;;;;;;10.50;10.10;;;10.70;1.00;;;;;;5048239;28;20185;-37
2024/01/04 09:47:01;;;;;;;11.03;10.43;;;10.70;1.00;;;;;;5061222;28;20776;-37
2024/01/04 09:49:28;;;;;;;9.67;9.27;;;10.70;1.00;;;;;;5053686;28;20450;-39
2024/01/04 09:51:54;;;;;;;9.60;9.20;;;10.80;1.00;;;;;;5061213;28;20860;-37
2024/01/04 09:54:20;;;;;;;10.63;10.13;;;10.80;99.90;;;;;;5053028;28;20774;-38
2024/01/04 09:56:47;;;;;;;10.10;9.70;;;11.00;99.90;;;;;;5058202;28;20192;-38
2024/01/04 09:59:13;;;;;;;10.43;10.03;;;11.10;99.90;;;;;;5053595;28;20437;-55
2024/01/04 10:01:39;;;;;;;10.90;10.40;;;11.40;99.90;;;;;;5052364;28;21009;-55
2024/01/04 10:04:16;;;;;;;9.70;9.30;;;11.40;72.50;;;;;;5051721;28;20178;-56
2024/01/04 10:06:45;;;;;;;10.03;9.63;;;11.50;98.10;;;;;;5055058;28;20887;-50
2024/01/04 10:09:19;;;;;;;10.07;9.67;;;11.60;1.00;;;;;;5057742;28;20522;-49
2024/01/04 10:11:56;;;;;;;10.10;9.70;;;12.20;1.00;;;;;;5050022;28;20922;-52
2024/01/04 10:14:23;;;;;;;10.40;9.90;;;12.50;1.00;;;;;;5059607;28;20928;-52
2024/01/04 10:16:49;;;;;;;10.10;9.70;;;13.00;1.00;;;;;;5060367;28;20915;-52
2024/01/04 10:19:15;;;;;;;9.90;9.50;;;13.30;1.00;;;;;;5050776;28;20467;-45
2024/01/04 10:21:40;;;;;;;11.10;10.60;;;13.70;1.00;;;;;;5057991;28;20213;-52
2024/01/04 10:24:07;;;;;;;9.67;9.27;;;14.10;1.00;;;;;;5049732;28;20190;-38
2024/01/04 10:26:33;;;;;;;10.27;9.87;;;14.30;1.00;;;;;;5058600;28;20277;-37
2024/01/04 10:28:59;;;;;;;10.70;10.20;;;14.30;1.00;;;;;;5051536;28;20539;-37
2024/01/04 10:31:26;;;;;;;10.70;10.20;;;14.00;1.00;;;;;;5053700;28;20209;-37
2024/01/04 10:33:56;;;;;;;10.50;10.00;;;14.10;1.00;;;;;;5041521;28;20917;-37
2024/01/04 10:36:22;;;;;;;10.70;10.30;;;14.40;1.00;;;;;;5054664;28;20424;-37
2024/01/04 10:38:48;;;;;;;10.67;10.27;;;13.70;1.00;;;;;;5048442;28;20478;-37
2024/01/04 10:41:17;;;;;;;10.50;10.10;;;13.00;1.00;;;;;;5058418;28;20988;-36
2024/01/04 10:43:43;;;;;;;10.50;10.10;;;12.40;1.00;;;;;;5057547;28;20551;-37
2024/01/04 10:46:10;;;;;;;10.40;10.00;;;11.90;1.00;;;;;;5046675;28;20876;-37
2024/01/04 10:48:36;;;;;;;10.50;10.10;;;11.60;1.00;;;;;;5059237;28;20192;-38
2024/01/04 10:51:09;;;;;;;10.27;9.77;;;11.40;1.00;;;;;;5057982;28;20416;-36
2024/01/04 10:53:37;;;;;;;10.00;9.60;;;10.80;91.80;;;;;;5054748;28;20499;-37
2024/01/04 10:56:06;;;;;;;10.60;10.20;;;10.60;99.90;;;;;;5047091;28;20412;-38
2024/01/04 10:58:35;;;;;;;9.83;9.43;;;10.20;99.90;;;;;;5059403;28;20481;-37
2024/01/04 11:01:03;;;;;;;10.60;10.20;;;9.90;1.70;;;;;;5054132;28;20946;-36
2024/01/04 11:03:30;;;;;;;10.60;10.20;;;9.80;99.90;;;;;;5049016;28;20456;-36
2024/01/04 11:05:59;;;;;;;10.23;9.83;;;9.80;1.00;;;;;;5050912;28;20462;-36
2024/01/04 11:08:26;;;;;;;10.00;9.60;;;9.70;99.90;;;;;;5059669;28;20754;-37
2024/01/04 11:10:52;;;;;;;11.30;10.80;;;9.80;99.90;;;;;;5051613;28;20427;-36
2024/01/04 11:13:18;;;;;;;11.00;10.60;;;9.80;5.30;;;;;;5059211;28;20423;-38
2024/01/04 11:15:45;;;;;;;11.20;10.80;;;9.80;99.90;;;;;;5052996;28;20431;-37
2024/01/04 11:18:24;;;;;;;10.90;10.40;;;9.70;1.00;;;;;;5056983;28;20478;-36
2024/01/04 11:20:57;;;;;;;12.30;11.70;;;9.60;8.60;;;;;;5054843;28;20466;-38
2024/01/04 11:24:05;;;;;;;13.50;12.90;;;9.40;1.00;;;;;;5056459;28;20510;-37
2024/01/04 11:26:56;;;;;;;12.70;12.13;;;9.00;1.00;;;;;;5055472;28;20534;-44
2024/01/04 11:29:23;;;;;;;12.63;12.13;;;8.80;1.00;;;;;;5052943;28;20426;-39
2024/01/04 11:31:49;;;;;;;12.57;12.07;;;8.70;13.10;;;;;;5049218;28;20430;-39
2024/01/04 11:34:15;;;;;;;12.37;11.87;;;8.60;55.30;;;;;;5046690;28;20426;-39
2024/01/04 11:36:41;;;;;;;12.90;12.30;;;8.50;76.20;;;;;;5041908;28;20938;-37
2024/01/04 11:39:07;;;;;;;12.97;12.17;;;8.40;77.40;;;;;;5053932;28;20474;-37
2024/01/04 11:41:35;;;;;;;11.67;11.17;;;8.30;99.90;;;;;;5049192;28;20548;-37
2024/01/04 11:44:01;;;;;;;11.00;10.50;;;8.30;99.90;;;;;;5045966;28;20421;-37
2024/01/04 11:46:26;;;;;;;11.80;11.20;;;8.30;99.90;;;;;;5051137;28;20492;-37
2024/01/04 11:48:56;;;;;;;12.90;12.23;;;8.30;99.90;;;;;;5046804;28;20426;-37
2024/01/04 11:51:35;;;;;;;12.70;11.87;;;8.30;99.90;;;;;;5053446;28;21144;-37
2024/01/04 11:54:00;;;;;;;12.20;11.70;;;8.40;99.90;;;;;;5056516;28;21198;-37
2024/01/04 11:56:26;;;;;;;11.97;11.47;;;8.40;53.00;;;;;;5055202;28;20414;-38
2024/01/04 11:58:52;;;;;;;11.83;11.33;;;8.50;57.30;;;;;;5058669;28;20267;-37
2024/01/04 12:01:24;;;;;;;11.97;11.47;;;8.50;25.20;;;;;;5051500;28;20451;-37
2024/01/04 12:03:54;;;;;;;11.53;11.03;;;8.50;1.00;;;;;;5057560;28;20662;-38
2024/01/04 12:06:23;;;;;;;12.17;11.57;;;8.50;1.00;;;;;;5048032;28;20526;-37
2024/01/04 12:08:49;;;;;;;11.70;11.10;;;8.50;1.00;;;;;;5050337;28;20687;-38
2024/01/04 12:11:16;;;;;;;11.23;10.73;;;8.50;1.00;;;;;;5044923;28;20429;-39
2024/01/04 12:13:41;;;;;;;10.70;10.30;;;8.60;1.00;;;;;;5062145;28;20511;-36
2024/01/04 12:16:07;;;;;;;11.40;10.90;;;8.60;1.00;;;;;;5059247;28;20494;-37
2024/01/04 12:18:33;;;;;;;11.07;10.57;;;8.60;99.90;;;;;;5060970;28;20216;-37
2024/01/04 12:21:03;;;;;;;12.50;11.90;;;8.60;99.90;;;;;;5054676;28;20813;-37
2024/01/04 12:23:29;;;;;;;12.13;11.53;;;8.70;99.90;;;;;;5062014;28;20471;-38
2024/01/04 12:25:55;;;;;;;11.77;11.30;;;8.60;99.90;;;;;;5056075;28;20420;-39
2024/01/04 12:28:21;;;;;;;11.70;11.20;;;8.50;99.90;;;;;;5055008;28;20440;-37
2024/01/04 12:30:46;;;;;;;12.83;12.23;;;8.30;99.90;;;;;;5046098;28;20182;-38
2024/01/04 12:33:12;;;;;;;13.10;12.60;;;8.20;99.90;;;;;;5048892;28;20192;-39
2024/01/04 12:35:38;;;;;;;13.27;12.53;;;8.20;1.00;;;;;;5059343;28;20234;-38
2024/01/04 12:38:05;;;;;;;13.00;12.50;;;8.10;4.80;;;;;;5050674;28;20376;-37
2024/01/04 12:40:39;;;;;;;12.97;12.37;;;8.10;48.50;;;;;;5057222;28;21004;-37